Terminal Aerodrome Forecast
Issued by NWS

Home | Current Version | Previous Version | Text Only | Print | Product List | Glossary On
Versions: 1 2 3 4 5 6 7 8 9 10 11 12 13 14 15 16 17 18 19 20 21 22 23 24 25 26
000
FTUS46 KSGX 242337
TAFSAN
TAF
KSAN 242337Z 2500/2606 26004KT P6SM VCSH SCT030 SCT045 BKN060
     FM250400 VRB04KT P6SM SCT025 BKN040 BKN150
     FM252000 30010KT P6SM SCT050
     FM260200 VRB04KT P6SM SKC=

USA.gov is the U.S. government's official web portal to all federal, state and local government web resources and services.